Time,TemperatureF,DewpointF,PressureIn,WindDirection,WindDirectionDegrees,WindSpeedMPH,WindSpeedGustMPH,Humidity,HourlyPrecipIn,Conditions,Clouds,dailyrainin,SolarRadiationWatts/m^2,SoftwareType,DateUTC
2013-02-24 00:01:00,44.0,31.0,-100.00,ESE,114,7.0,11.0,59,0.00,,,0.00,0.000000,,2013-02-24 06:01:00,
2013-02-24 00:32:00,44.0,31.0,-100.00,SE,130,10.0,15.0,59,0.00,,,0.00,0.000000,,2013-02-24 06:32:00,
2013-02-24 00:42:00,44.0,31.0,-100.00,SE,130,10.0,15.0,59,0.00,,,0.00,0.000000,,2013-02-24 06:42:00,
2013-02-24 00:52:00,44.0,31.0,-100.00,SE,130,10.0,15.0,59,0.00,,,0.00,0.000000,,2013-02-24 06:52:00,
2013-02-24 01:01:00,44.0,31.0,-100.00,SE,130,10.0,15.0,59,0.00,,,0.00,0.000000,,2013-02-24 07:01:00,
2013-02-24 01:32:00,43.0,30.0,-100.00,SE,130,9.0,16.0,59,0.00,,,0.00,0.000000,,2013-02-24 07:32:00,
2013-02-24 01:42:00,43.0,30.0,-100.00,SE,130,9.0,16.0,59,0.00,,,0.00,0.000000,,2013-02-24 07:42:00,
2013-02-24 01:52:00,43.0,30.0,-100.00,SE,130,9.0,16.0,59,0.00,,,0.00,0.000000,,2013-02-24 07:52:00,
2013-02-24 02:01:00,43.0,30.0,-100.00,SE,130,9.0,16.0,59,0.00,,,0.00,0.000000,,2013-02-24 08:01:00,
2013-02-24 02:32:00,42.0,29.0,-100.00,SE,138,10.0,16.0,60,0.00,,,-99.99,0.000000,,2013-02-24 08:32:00,
2013-02-24 02:42:00,42.0,29.0,-100.00,SE,138,10.0,16.0,60,0.00,,,-99.99,0.000000,,2013-02-24 08:42:00,
2013-02-24 02:54:00,42.0,29.0,-100.00,SE,138,10.0,16.0,60,0.00,,,-99.99,0.000000,,2013-02-24 08:54:00,
2013-02-24 03:01:00,42.0,29.0,-100.00,SE,138,10.0,16.0,60,0.00,,,-99.99,0.000000,,2013-02-24 09:01:00,
2013-02-24 03:32:00,42.0,30.0,-100.00,SE,134,8.0,16.0,63,0.00,,,0.00,0.000000,,2013-02-24 09:32:00,
2013-02-24 03:42:00,42.0,30.0,-100.00,SE,134,8.0,16.0,63,0.00,,,0.00,0.000000,,2013-02-24 09:42:00,
2013-02-24 03:52:00,42.0,30.0,-100.00,SE,134,8.0,16.0,63,0.00,,,0.00,0.000000,,2013-02-24 09:52:00,
2013-02-24 04:01:00,42.0,30.0,-100.00,SE,134,8.0,16.0,63,0.00,,,0.00,0.000000,,2013-02-24 10:01:00,
2013-02-24 04:32:00,41.0,31.0,-100.00,SE,124,8.0,14.0,66,0.00,,,0.00,0.000000,,2013-02-24 10:32:00,
2013-02-24 04:42:00,41.0,31.0,-100.00,SE,124,8.0,14.0,66,0.00,,,0.00,0.000000,,2013-02-24 10:42:00,
2013-02-24 04:52:00,41.0,31.0,-100.00,SE,124,8.0,14.0,66,0.00,,,0.00,0.000000,,2013-02-24 10:52:00,
2013-02-24 05:01:00,41.0,31.0,-100.00,SE,124,8.0,14.0,66,0.00,,,0.00,0.000000,,2013-02-24 11:01:00,
2013-02-24 05:32:00,42.0,31.0,-100.00,SE,131,8.0,15.0,64,0.00,,,0.00,0.000000,,2013-02-24 11:32:00,
2013-02-24 05:42:00,42.0,31.0,-100.00,SE,131,8.0,15.0,64,0.00,,,0.00,0.000000,,2013-02-24 11:42:00,
2013-02-24 05:53:00,42.0,31.0,-100.00,SE,131,8.0,15.0,64,0.00,,,0.00,0.000000,,2013-02-24 11:53:00,
2013-02-24 06:01:00,42.0,31.0,-100.00,SE,131,8.0,15.0,64,0.00,,,0.00,0.000000,,2013-02-24 12:01:00,
2013-02-24 06:33:00,43.0,30.0,-100.00,SE,131,11.0,16.0,59,0.00,,,0.00,0.000000,,2013-02-24 12:33:00,
2013-02-24 06:46:00,43.0,30.0,-100.00,SE,131,11.0,16.0,59,0.00,,,0.00,0.000000,,2013-02-24 12:46:00,
2013-02-24 06:56:00,43.0,30.0,-100.00,SE,131,11.0,16.0,59,0.00,,,0.00,0.000000,,2013-02-24 12:56:00,
2013-02-24 07:35:00,42.0,30.0,-100.00,SE,126,9.0,15.0,62,0.00,,,0.00,0.000000,,2013-02-24 13:35:00,
2013-02-24 07:45:00,42.0,30.0,-100.00,SE,126,9.0,15.0,62,0.00,,,0.00,0.000000,,2013-02-24 13:45:00,
2013-02-24 07:55:00,42.0,30.0,-100.00,SE,126,9.0,15.0,62,0.00,,,0.00,0.000000,,2013-02-24 13:55:00,
2013-02-24 08:03:00,42.0,30.0,-100.00,SE,126,9.0,15.0,62,0.00,,,0.00,0.000000,,2013-02-24 14:03:00,
2013-02-24 08:34:00,46.0,32.0,-100.00,SE,146,11.0,17.0,59,0.00,,,0.00,79.000000,,2013-02-24 14:34:00,
2013-02-24 08:45:00,46.0,32.0,-100.00,SE,146,11.0,17.0,59,0.00,,,0.00,79.000000,,2013-02-24 14:45:00,
2013-02-24 08:54:00,46.0,32.0,-100.00,SE,146,11.0,17.0,59,0.00,,,0.00,79.000000,,2013-02-24 14:54:00,
2013-02-24 09:03:00,46.0,32.0,-100.00,SE,146,11.0,17.0,59,0.00,,,0.00,79.000000,,2013-02-24 15:03:00,
2013-02-24 09:32:00,51.0,34.0,-100.00,SE,144,12.0,19.0,53,0.00,,,0.00,321.000000,,2013-02-24 15:32:00,
2013-02-24 09:42:00,51.0,34.0,-100.00,SE,144,12.0,19.0,53,0.00,,,0.00,321.000000,,2013-02-24 15:42:00,
2013-02-24 09:53:00,51.0,34.0,-100.00,SE,144,12.0,19.0,53,0.00,,,0.00,321.000000,,2013-02-24 15:53:00,
2013-02-24 10:01:00,51.0,34.0,-100.00,SE,144,12.0,19.0,53,0.00,,,0.00,321.000000,,2013-02-24 16:01:00,
2013-02-24 10:32:00,56.0,38.0,-100.00,SSE,151,13.0,20.0,50,0.00,,,0.00,566.000000,,2013-02-24 16:32:00,
2013-02-24 10:42:00,56.0,38.0,-100.00,SSE,151,13.0,20.0,50,0.00,,,0.00,566.000000,,2013-02-24 16:42:00,
2013-02-24 10:52:00,56.0,38.0,-100.00,SSE,151,13.0,20.0,50,0.00,,,0.00,566.000000,,2013-02-24 16:52:00,
2013-02-24 11:01:00,56.0,38.0,-100.00,SSE,151,13.0,20.0,50,0.00,,,0.00,566.000000,,2013-02-24 17:01:00,
2013-02-24 11:32:00,62.0,40.0,-100.00,SE,145,12.0,22.0,44,0.00,,,0.00,753.000000,,2013-02-24 17:32:00,
2013-02-24 11:42:00,62.0,40.0,-100.00,SE,145,12.0,22.0,44,0.00,,,0.00,753.000000,,2013-02-24 17:42:00,
2013-02-24 11:53:00,62.0,40.0,-100.00,SE,145,12.0,22.0,44,0.00,,,0.00,753.000000,,2013-02-24 17:53:00,
2013-02-24 12:01:00,62.0,40.0,-100.00,SE,145,12.0,22.0,44,0.00,,,0.00,753.000000,,2013-02-24 18:01:00,
2013-02-24 12:32:00,65.0,40.0,-100.00,SE,140,13.0,22.0,40,0.00,,,0.00,878.000000,,2013-02-24 18:32:00,
2013-02-24 12:42:00,65.0,40.0,-100.00,SE,140,13.0,22.0,40,0.00,,,0.00,878.000000,,2013-02-24 18:42:00,
2013-02-24 12:52:00,65.0,40.0,-100.00,SE,140,13.0,22.0,40,0.00,,,0.00,878.000000,,2013-02-24 18:52:00,
2013-02-24 13:01:00,65.0,40.0,-100.00,SE,140,13.0,22.0,40,0.00,,,0.00,878.000000,,2013-02-24 19:01:00,
2013-02-24 13:32:00,67.0,39.0,-100.00,SSE,158,14.0,24.0,36,0.00,,,0.00,929.000000,,2013-02-24 19:32:00,
2013-02-24 13:42:00,67.0,39.0,-100.00,SSE,158,14.0,24.0,36,0.00,,,0.00,929.000000,,2013-02-24 19:42:00,
2013-02-24 13:52:00,67.0,39.0,-100.00,SSE,158,14.0,24.0,36,0.00,,,0.00,929.000000,,2013-02-24 19:52:00,
2013-02-24 14:02:00,67.0,39.0,-100.00,SSE,158,14.0,24.0,36,0.00,,,0.00,929.000000,,2013-02-24 20:02:00,
2013-02-24 14:32:00,69.0,40.0,-100.00,SSE,165,14.0,25.0,35,0.00,,,0.00,894.000000,,2013-02-24 20:32:00,
2013-02-24 14:42:00,69.0,40.0,-100.00,SSE,165,14.0,25.0,35,0.00,,,0.00,894.000000,,2013-02-24 20:42:00,
2013-02-24 14:52:00,69.0,40.0,-100.00,SSE,165,14.0,25.0,35,0.00,,,0.00,894.000000,,2013-02-24 20:52:00,
2013-02-24 15:01:00,69.0,40.0,-100.00,SSE,165,14.0,25.0,35,0.00,,,0.00,894.000000,,2013-02-24 21:01:00,
2013-02-24 15:32:00,70.0,40.0,-100.00,SSE,151,15.0,25.0,34,0.00,,,0.00,795.000000,,2013-02-24 21:32:00,
2013-02-24 15:42:00,70.0,40.0,-100.00,SSE,151,15.0,25.0,34,0.00,,,0.00,795.000000,,2013-02-24 21:42:00,
2013-02-24 15:52:00,70.0,40.0,-100.00,SSE,151,15.0,25.0,34,0.00,,,0.00,795.000000,,2013-02-24 21:52:00,
2013-02-24 16:01:00,70.0,40.0,-100.00,SSE,151,15.0,25.0,34,0.00,,,0.00,795.000000,,2013-02-24 22:01:00,
2013-02-24 16:32:00,71.0,40.0,-100.00,SE,139,12.0,24.0,32,0.00,,,0.00,633.000000,,2013-02-24 22:32:00,
2013-02-24 16:42:00,71.0,40.0,-100.00,SE,139,12.0,24.0,32,0.00,,,0.00,633.000000,,2013-02-24 22:42:00,
2013-02-24 16:52:00,71.0,40.0,-100.00,SE,139,12.0,24.0,32,0.00,,,0.00,633.000000,,2013-02-24 22:52:00,
2013-02-24 17:02:00,71.0,40.0,-100.00,SE,139,12.0,24.0,32,0.00,,,0.00,633.000000,,2013-02-24 23:02:00,
2013-02-24 17:32:00,70.0,40.0,-100.00,SE,144,15.0,23.0,34,0.00,,,0.00,438.000000,,2013-02-24 23:32:00,
2013-02-24 17:42:00,70.0,40.0,-100.00,SE,144,15.0,23.0,34,0.00,,,0.00,438.000000,,2013-02-24 23:42:00,
2013-02-24 17:52:00,70.0,40.0,-100.00,SE,144,15.0,23.0,34,0.00,,,0.00,438.000000,,2013-02-24 23:52:00,
2013-02-24 18:01:00,70.0,40.0,-100.00,SE,144,15.0,23.0,34,0.00,,,0.00,438.000000,,2013-02-25 00:01:00,
2013-02-24 18:32:00,67.0,38.0,-100.00,SE,136,14.0,23.0,35,0.00,,,0.00,193.000000,,2013-02-25 00:32:00,
2013-02-24 18:42:00,67.0,38.0,-100.00,SE,136,14.0,23.0,35,0.00,,,0.00,193.000000,,2013-02-25 00:42:00,
2013-02-24 18:52:00,67.0,38.0,-100.00,SE,136,14.0,23.0,35,0.00,,,0.00,193.000000,,2013-02-25 00:52:00,
2013-02-24 19:01:00,67.0,38.0,-100.00,SE,136,14.0,23.0,35,0.00,,,0.00,193.000000,,2013-02-25 01:01:00,
2013-02-24 19:32:00,64.0,40.0,-100.00,SE,130,11.0,23.0,41,0.00,,,0.00,8.000000,,2013-02-25 01:32:00,
2013-02-24 19:42:00,64.0,40.0,-100.00,SE,130,11.0,23.0,41,0.00,,,0.00,8.000000,,2013-02-25 01:42:00,
2013-02-24 19:52:00,64.0,40.0,-100.00,SE,130,11.0,23.0,41,0.00,,,0.00,8.000000,,2013-02-25 01:52:00,
2013-02-24 20:01:00,64.0,40.0,-100.00,SE,130,11.0,23.0,41,0.00,,,0.00,8.000000,,2013-02-25 02:01:00,
2013-02-24 20:32:00,61.0,41.0,-100.00,ESE,120,12.0,17.0,48,0.00,,,0.00,0.000000,,2013-02-25 02:32:00,
2013-02-24 20:42:00,61.0,41.0,-100.00,ESE,120,12.0,17.0,48,0.00,,,0.00,0.000000,,2013-02-25 02:42:00,
2013-02-24 20:52:00,61.0,41.0,-100.00,ESE,120,12.0,17.0,48,0.00,,,0.00,0.000000,,2013-02-25 02:52:00,
2013-02-24 21:01:00,61.0,41.0,-100.00,ESE,120,12.0,17.0,48,0.00,,,0.00,0.000000,,2013-02-25 03:01:00,
2013-02-24 21:32:00,61.0,42.0,-100.00,SE,125,15.0,24.0,50,0.00,,,0.00,0.000000,,2013-02-25 03:32:00,
2013-02-24 21:42:00,61.0,42.0,-100.00,SE,125,15.0,24.0,50,0.00,,,0.00,0.000000,,2013-02-25 03:42:00,
2013-02-24 21:52:00,61.0,42.0,-100.00,SE,125,15.0,24.0,50,0.00,,,0.00,0.000000,,2013-02-25 03:52:00,
2013-02-24 22:01:00,61.0,42.0,-100.00,SE,125,15.0,24.0,50,0.00,,,0.00,0.000000,,2013-02-25 04:01:00,
2013-02-24 22:32:00,58.0,41.0,-100.00,ESE,116,12.0,25.0,54,0.00,,,0.00,0.000000,,2013-02-25 04:32:00,
2013-02-24 22:42:00,58.0,41.0,-100.00,ESE,116,12.0,25.0,54,0.00,,,0.00,0.000000,,2013-02-25 04:42:00,
2013-02-24 22:52:00,58.0,41.0,-100.00,ESE,116,12.0,25.0,54,0.00,,,0.00,0.000000,,2013-02-25 04:52:00,
2013-02-24 23:01:00,58.0,41.0,-100.00,ESE,116,12.0,25.0,54,0.00,,,0.00,0.000000,,2013-02-25 05:01:00,
2013-02-24 23:32:00,58.0,42.0,-100.00,SE,130,14.0,20.0,56,0.00,,,0.00,0.000000,,2013-02-25 05:32:00,
2013-02-24 23:42:00,58.0,42.0,-100.00,SE,130,14.0,20.0,56,0.00,,,0.00,0.000000,,2013-02-25 05:42:00,
2013-02-24 23:52:00,58.0,42.0,-100.00,SE,130,14.0,20.0,56,0.00,,,0.00,0.000000,,2013-02-25 05:52:00,